sensor_id;sensor_type;location;lat;lon;timestamp;P1;durP1;ratioP1;P2;durP2;ratioP2
43678;SDS011;29279;50.858;4.392;2023-03-21T00:00:36;19.27;;;6.38;;
43678;SDS011;29279;50.858;4.392;2023-03-21T00:03:01;20.85;;;7.28;;
43678;SDS011;29279;50.858;4.392;2023-03-21T00:05:30;12.57;;;6.63;;
43678;SDS011;29279;50.858;4.392;2023-03-21T00:07:56;16.27;;;6.35;;
43678;SDS011;29279;50.858;4.392;2023-03-21T00:10:22;21.40;;;7.43;;
43678;SDS011;29279;50.858;4.392;2023-03-21T00:12:48;17.80;;;6.82;;
43678;SDS011;29279;50.858;4.392;2023-03-21T00:15:19;16.42;;;6.22;;
43678;SDS011;29279;50.858;4.392;2023-03-21T00:17:45;23.52;;;7.05;;
43678;SDS011;29279;50.858;4.392;2023-03-21T00:20:14;14.18;;;6.47;;
43678;SDS011;29279;50.858;4.392;2023-03-21T00:22:41;25.67;;;7.95;;
43678;SDS011;29279;50.858;4.392;2023-03-21T00:25:08;14.90;;;6.57;;
43678;SDS011;29279;50.858;4.392;2023-03-21T00:27:34;16.13;;;7.28;;
43678;SDS011;29279;50.858;4.392;2023-03-21T00:30:00;17.48;;;6.25;;
43678;SDS011;29279;50.858;4.392;2023-03-21T00:32:26;21.60;;;7.05;;
43678;SDS011;29279;50.858;4.392;2023-03-21T00:34:51;16.38;;;6.13;;
43678;SDS011;29279;50.858;4.392;2023-03-21T00:37:17;12.68;;;5.43;;
43678;SDS011;29279;50.858;4.392;2023-03-21T00:39:43;23.98;;;6.65;;
43678;SDS011;29279;50.858;4.392;2023-03-21T00:42:13;20.67;;;6.22;;
43678;SDS011;29279;50.858;4.392;2023-03-21T00:44:42;15.90;;;5.60;;
43678;SDS011;29279;50.858;4.392;2023-03-21T00:47:09;12.25;;;5.35;;
43678;SDS011;29279;50.858;4.392;2023-03-21T00:49:36;14.63;;;5.40;;
43678;SDS011;29279;50.858;4.392;2023-03-21T00:52:03;16.55;;;6.10;;
43678;SDS011;29279;50.858;4.392;2023-03-21T00:54:34;12.77;;;5.15;;
43678;SDS011;29279;50.858;4.392;2023-03-21T00:57:01;18.05;;;5.70;;
43678;SDS011;29279;50.858;4.392;2023-03-21T00:59:27;19.15;;;5.95;;
43678;SDS011;29279;50.858;4.392;2023-03-21T01:01:54;16.38;;;6.22;;
43678;SDS011;29279;50.858;4.392;2023-03-21T01:04:20;14.82;;;6.45;;
43678;SDS011;29279;50.858;4.392;2023-03-21T01:06:50;13.18;;;5.72;;
43678;SDS011;29279;50.858;4.392;2023-03-21T01:09:19;15.40;;;5.55;;
43678;SDS011;29279;50.858;4.392;2023-03-21T01:11:46;18.02;;;6.47;;
43678;SDS011;29279;50.858;4.392;2023-03-21T01:14:13;15.85;;;6.13;;
43678;SDS011;29279;50.858;4.392;2023-03-21T01:16:40;16.88;;;4.90;;
43678;SDS011;29279;50.858;4.392;2023-03-21T01:19:06;18.42;;;6.63;;
43678;SDS011;29279;50.858;4.392;2023-03-21T01:21:33;19.35;;;5.93;;
43678;SDS011;29279;50.858;4.392;2023-03-21T01:23:59;19.52;;;6.20;;
43678;SDS011;29279;50.858;4.392;2023-03-21T01:26:26;20.45;;;6.13;;
43678;SDS011;29279;50.858;4.392;2023-03-21T01:28:52;20.70;;;5.38;;
43678;SDS011;29279;50.858;4.392;2023-03-21T01:31:18;19.83;;;6.20;;
43678;SDS011;29279;50.858;4.392;2023-03-21T01:33:44;15.98;;;6.18;;
43678;SDS011;29279;50.858;4.392;2023-03-21T01:36:14;19.63;;;7.05;;
43678;SDS011;29279;50.858;4.392;2023-03-21T01:38:42;25.10;;;6.90;;
43678;SDS011;29279;50.858;4.392;2023-03-21T01:41:13;23.52;;;6.78;;
43678;SDS011;29279;50.858;4.392;2023-03-21T01:43:44;22.70;;;6.55;;
43678;SDS011;29279;50.858;4.392;2023-03-21T01:46:24;20.52;;;6.25;;
43678;SDS011;29279;50.858;4.392;2023-03-21T01:52:00;21.70;;;6.38;;
43678;SDS011;29279;50.858;4.392;2023-03-21T01:54:31;20.52;;;5.88;;
43678;SDS011;29279;50.858;4.392;2023-03-21T01:57:03;19.00;;;6.43;;
43678;SDS011;29279;50.858;4.392;2023-03-21T01:59:38;19.05;;;6.53;;
43678;SDS011;29279;50.858;4.392;2023-03-21T02:02:08;23.73;;;6.97;;
43678;SDS011;29279;50.858;4.392;2023-03-21T02:04:37;27.05;;;6.70;;
43678;SDS011;29279;50.858;4.392;2023-03-21T02:07:06;18.67;;;5.95;;
43678;SDS011;29279;50.858;4.392;2023-03-21T02:09:46;21.33;;;6.55;;
43678;SDS011;29279;50.858;4.392;2023-03-21T02:12:14;20.35;;;5.90;;
43678;SDS011;29279;50.858;4.392;2023-03-21T02:14:40;24.30;;;6.70;;
43678;SDS011;29279;50.858;4.392;2023-03-21T02:17:14;17.38;;;5.93;;
43678;SDS011;29279;50.858;4.392;2023-03-21T02:39:23;18.25;;;5.30;;
43678;SDS011;29279;50.858;4.392;2023-03-21T02:44:22;20.10;;;4.97;;
43678;SDS011;29279;50.858;4.392;2023-03-21T02:47:13;21.52;;;4.43;;
43678;SDS011;29279;50.858;4.392;2023-03-21T02:50:23;15.18;;;4.07;;
43678;SDS011;29279;50.858;4.392;2023-03-21T02:53:07;13.93;;;4.45;;
43678;SDS011;29279;50.858;4.392;2023-03-21T02:55:36;13.65;;;4.28;;
43678;SDS011;29279;50.858;4.392;2023-03-21T02:58:06;11.98;;;3.80;;
43678;SDS011;29279;50.858;4.392;2023-03-21T03:00:41;16.98;;;4.28;;
43678;SDS011;29279;50.858;4.392;2023-03-21T03:03:09;17.60;;;4.68;;
43678;SDS011;29279;50.858;4.392;2023-03-21T03:05:36;15.70;;;4.90;;
43678;SDS011;29279;50.858;4.392;2023-03-21T03:11:25;19.73;;;4.65;;
43678;SDS011;29279;50.858;4.392;2023-03-21T03:20:00;14.60;;;4.70;;
43678;SDS011;29279;50.858;4.392;2023-03-21T03:25:13;16.38;;;4.25;;
43678;SDS011;29279;50.858;4.392;2023-03-21T03:27:44;12.23;;;4.30;;
43678;SDS011;29279;50.858;4.392;2023-03-21T03:30:15;17.33;;;4.38;;
43678;SDS011;29279;50.858;4.392;2023-03-21T03:32:44;15.73;;;4.57;;
43678;SDS011;29279;50.858;4.392;2023-03-21T03:35:15;13.02;;;4.20;;
43678;SDS011;29279;50.858;4.392;2023-03-21T03:37:47;11.07;;;3.60;;
43678;SDS011;29279;50.858;4.392;2023-03-21T03:40:18;13.05;;;4.13;;
43678;SDS011;29279;50.858;4.392;2023-03-21T03:42:48;17.02;;;3.95;;
43678;SDS011;29279;50.858;4.392;2023-03-21T03:45:17;19.60;;;4.78;;
43678;SDS011;29279;50.858;4.392;2023-03-21T03:47:49;16.45;;;4.90;;
43678;SDS011;29279;50.858;4.392;2023-03-21T03:50:27;11.68;;;4.13;;
43678;SDS011;29279;50.858;4.392;2023-03-21T03:52:58;17.80;;;4.60;;
43678;SDS011;29279;50.858;4.392;2023-03-21T03:55:30;14.85;;;4.50;;
43678;SDS011;29279;50.858;4.392;2023-03-21T03:57:58;18.52;;;4.32;;
43678;SDS011;29279;50.858;4.392;2023-03-21T04:00:25;16.45;;;5.45;;
43678;SDS011;29279;50.858;4.392;2023-03-21T04:02:52;15.88;;;5.72;;
43678;SDS011;29279;50.858;4.392;2023-03-21T04:05:18;15.13;;;4.93;;
43678;SDS011;29279;50.858;4.392;2023-03-21T04:07:45;19.58;;;5.32;;
43678;SDS011;29279;50.858;4.392;2023-03-21T04:10:14;18.17;;;5.65;;
43678;SDS011;29279;50.858;4.392;2023-03-21T04:12:41;21.73;;;5.68;;
43678;SDS011;29279;50.858;4.392;2023-03-21T04:15:07;17.33;;;5.30;;
43678;SDS011;29279;50.858;4.392;2023-03-21T04:17:33;16.17;;;5.45;;
43678;SDS011;29279;50.858;4.392;2023-03-21T04:19:59;20.48;;;5.50;;
43678;SDS011;29279;50.858;4.392;2023-03-21T04:22:25;20.20;;;5.78;;
43678;SDS011;29279;50.858;4.392;2023-03-21T04:24:51;18.95;;;5.80;;
43678;SDS011;29279;50.858;4.392;2023-03-21T04:27:17;20.17;;;6.35;;
43678;SDS011;29279;50.858;4.392;2023-03-21T04:29:43;20.88;;;5.75;;
43678;SDS011;29279;50.858;4.392;2023-03-21T04:32:09;12.00;;;5.38;;
43678;SDS011;29279;50.858;4.392;2023-03-21T04:34:44;22.58;;;6.05;;
43678;SDS011;29279;50.858;4.392;2023-03-21T04:37:17;24.52;;;6.60;;
43678;SDS011;29279;50.858;4.392;2023-03-21T04:39:43;20.70;;;6.30;;
43678;SDS011;29279;50.858;4.392;2023-03-21T04:42:13;17.48;;;6.65;;
43678;SDS011;29279;50.858;4.392;2023-03-21T04:44:40;14.88;;;5.97;;
43678;SDS011;29279;50.858;4.392;2023-03-21T04:47:06;17.55;;;7.85;;
43678;SDS011;29279;50.858;4.392;2023-03-21T04:49:32;24.55;;;7.10;;
43678;SDS011;29279;50.858;4.392;2023-03-21T04:51:58;21.48;;;6.40;;
43678;SDS011;29279;50.858;4.392;2023-03-21T04:54:24;20.20;;;7.30;;
43678;SDS011;29279;50.858;4.392;2023-03-21T04:56:49;20.73;;;7.38;;
43678;SDS011;29279;50.858;4.392;2023-03-21T04:59:16;24.13;;;7.55;;
43678;SDS011;29279;50.858;4.392;2023-03-21T05:01:42;31.33;;;8.35;;
43678;SDS011;29279;50.858;4.392;2023-03-21T05:04:09;23.85;;;7.50;;
43678;SDS011;29279;50.858;4.392;2023-03-21T05:06:37;14.82;;;6.25;;
43678;SDS011;29279;50.858;4.392;2023-03-21T05:09:03;22.33;;;7.55;;
43678;SDS011;29279;50.858;4.392;2023-03-21T05:11:31;19.50;;;7.22;;
43678;SDS011;29279;50.858;4.392;2023-03-21T05:13:57;24.42;;;6.70;;
43678;SDS011;29279;50.858;4.392;2023-03-21T05:16:23;16.83;;;6.18;;
43678;SDS011;29279;50.858;4.392;2023-03-21T05:18:53;22.65;;;6.88;;
43678;SDS011;29279;50.858;4.392;2023-03-21T05:21:20;16.75;;;6.35;;
43678;SDS011;29279;50.858;4.392;2023-03-21T05:23:46;23.15;;;7.10;;
43678;SDS011;29279;50.858;4.392;2023-03-21T05:26:18;26.45;;;6.50;;
43678;SDS011;29279;50.858;4.392;2023-03-21T05:28:46;21.20;;;6.28;;
43678;SDS011;29279;50.858;4.392;2023-03-21T05:31:16;21.85;;;6.97;;
43678;SDS011;29279;50.858;4.392;2023-03-21T05:33:42;27.75;;;8.07;;
43678;SDS011;29279;50.858;4.392;2023-03-21T05:36:09;23.83;;;7.72;;
43678;SDS011;29279;50.858;4.392;2023-03-21T05:38:35;19.05;;;6.03;;
43678;SDS011;29279;50.858;4.392;2023-03-21T05:41:01;17.88;;;6.40;;
43678;SDS011;29279;50.858;4.392;2023-03-21T05:43:27;21.75;;;7.00;;
43678;SDS011;29279;50.858;4.392;2023-03-21T05:45:52;28.27;;;6.93;;
43678;SDS011;29279;50.858;4.392;2023-03-21T05:48:18;21.70;;;6.32;;
43678;SDS011;29279;50.858;4.392;2023-03-21T05:50:44;27.80;;;7.60;;
43678;SDS011;29279;50.858;4.392;2023-03-21T05:53:10;13.73;;;5.28;;
43678;SDS011;29279;50.858;4.392;2023-03-21T05:55:36;26.52;;;7.28;;
43678;SDS011;29279;50.858;4.392;2023-03-21T05:58:02;17.70;;;6.68;;
43678;SDS011;29279;50.858;4.392;2023-03-21T06:00:28;20.55;;;7.43;;
43678;SDS011;29279;50.858;4.392;2023-03-21T06:02:54;23.48;;;6.75;;
43678;SDS011;29279;50.858;4.392;2023-03-21T06:05:20;21.92;;;6.68;;
43678;SDS011;29279;50.858;4.392;2023-03-21T06:07:45;22.08;;;7.35;;
43678;SDS011;29279;50.858;4.392;2023-03-21T06:10:11;19.10;;;7.43;;
43678;SDS011;29279;50.858;4.392;2023-03-21T06:12:37;27.67;;;7.82;;
43678;SDS011;29279;50.858;4.392;2023-03-21T06:15:04;23.08;;;7.22;;
43678;SDS011;29279;50.858;4.392;2023-03-21T06:17:32;26.75;;;7.93;;
43678;SDS011;29279;50.858;4.392;2023-03-21T06:19:58;23.70;;;7.88;;
43678;SDS011;29279;50.858;4.392;2023-03-21T06:22:29;21.20;;;8.35;;
43678;SDS011;29279;50.858;4.392;2023-03-21T06:24:55;21.42;;;7.57;;
43678;SDS011;29279;50.858;4.392;2023-03-21T06:27:21;19.88;;;7.43;;
43678;SDS011;29279;50.858;4.392;2023-03-21T06:29:46;22.23;;;7.32;;
43678;SDS011;29279;50.858;4.392;2023-03-21T06:32:13;20.33;;;7.35;;
43678;SDS011;29279;50.858;4.392;2023-03-21T06:34:38;25.35;;;7.38;;
43678;SDS011;29279;50.858;4.392;2023-03-21T06:37:04;18.38;;;6.53;;
43678;SDS011;29279;50.858;4.392;2023-03-21T06:39:30;16.08;;;6.60;;
43678;SDS011;29279;50.858;4.392;2023-03-21T06:41:57;25.25;;;7.95;;
43678;SDS011;29279;50.858;4.392;2023-03-21T06:44:23;17.75;;;5.90;;
43678;SDS011;29279;50.858;4.392;2023-03-21T06:46:50;17.27;;;6.28;;
43678;SDS011;29279;50.858;4.392;2023-03-21T06:49:16;17.02;;;5.65;;
43678;SDS011;29279;50.858;4.392;2023-03-21T06:51:42;14.95;;;5.97;;
43678;SDS011;29279;50.858;4.392;2023-03-21T06:54:08;19.50;;;5.97;;
43678;SDS011;29279;50.858;4.392;2023-03-21T06:56:34;12.23;;;5.07;;
43678;SDS011;29279;50.858;4.392;2023-03-21T06:59:00;17.52;;;6.32;;
43678;SDS011;29279;50.858;4.392;2023-03-21T07:01:26;17.13;;;5.65;;
43678;SDS011;29279;50.858;4.392;2023-03-21T07:03:55;16.60;;;5.85;;
43678;SDS011;29279;50.858;4.392;2023-03-21T07:06:23;11.32;;;4.45;;
43678;SDS011;29279;50.858;4.392;2023-03-21T07:08:53;12.93;;;4.90;;
43678;SDS011;29279;50.858;4.392;2023-03-21T07:11:19;16.80;;;4.75;;
43678;SDS011;29279;50.858;4.392;2023-03-21T07:13:45;15.77;;;4.47;;
43678;SDS011;29279;50.858;4.392;2023-03-21T07:16:12;13.45;;;4.75;;
43678;SDS011;29279;50.858;4.392;2023-03-21T07:18:42;11.35;;;4.07;;
43678;SDS011;29279;50.858;4.392;2023-03-21T07:21:07;13.55;;;4.47;;
43678;SDS011;29279;50.858;4.392;2023-03-21T07:23:34;15.82;;;5.13;;
43678;SDS011;29279;50.858;4.392;2023-03-21T07:26:00;14.35;;;4.22;;
43678;SDS011;29279;50.858;4.392;2023-03-21T07:28:26;11.32;;;4.68;;
43678;SDS011;29279;50.858;4.392;2023-03-21T07:30:53;13.93;;;3.30;;
43678;SDS011;29279;50.858;4.392;2023-03-21T07:33:21;10.85;;;3.25;;
43678;SDS011;29279;50.858;4.392;2023-03-21T07:35:50;17.70;;;3.90;;
43678;SDS011;29279;50.858;4.392;2023-03-21T07:38:16;19.38;;;4.30;;
43678;SDS011;29279;50.858;4.392;2023-03-21T07:40:43;12.93;;;4.18;;
43678;SDS011;29279;50.858;4.392;2023-03-21T07:43:10;11.45;;;3.22;;
43678;SDS011;29279;50.858;4.392;2023-03-21T07:45:36;11.18;;;3.67;;
43678;SDS011;29279;50.858;4.392;2023-03-21T07:48:01;9.93;;;2.85;;
43678;SDS011;29279;50.858;4.392;2023-03-21T07:50:27;23.23;;;3.97;;
43678;SDS011;29279;50.858;4.392;2023-03-21T07:52:53;11.50;;;3.05;;
43678;SDS011;29279;50.858;4.392;2023-03-21T07:55:19;13.38;;;3.42;;
43678;SDS011;29279;50.858;4.392;2023-03-21T07:57:45;13.93;;;3.40;;
43678;SDS011;29279;50.858;4.392;2023-03-21T08:00:15;7.20;;;2.90;;
43678;SDS011;29279;50.858;4.392;2023-03-21T08:02:47;9.30;;;3.05;;
43678;SDS011;29279;50.858;4.392;2023-03-21T08:05:14;13.95;;;3.25;;
43678;SDS011;29279;50.858;4.392;2023-03-21T08:07:42;7.72;;;3.20;;
43678;SDS011;29279;50.858;4.392;2023-03-21T08:10:08;10.80;;;3.00;;
43678;SDS011;29279;50.858;4.392;2023-03-21T08:12:36;10.38;;;3.35;;
43678;SDS011;29279;50.858;4.392;2023-03-21T08:15:01;12.73;;;4.03;;
43678;SDS011;29279;50.858;4.392;2023-03-21T08:17:27;12.40;;;3.50;;
43678;SDS011;29279;50.858;4.392;2023-03-21T08:19:53;13.90;;;3.30;;
43678;SDS011;29279;50.858;4.392;2023-03-21T08:22:18;17.38;;;3.78;;
43678;SDS011;29279;50.858;4.392;2023-03-21T08:24:44;14.00;;;4.35;;
43678;SDS011;29279;50.858;4.392;2023-03-21T08:27:10;15.93;;;4.85;;
43678;SDS011;29279;50.858;4.392;2023-03-21T08:29:36;13.05;;;4.15;;
43678;SDS011;29279;50.858;4.392;2023-03-21T08:32:04;17.10;;;5.10;;
43678;SDS011;29279;50.858;4.392;2023-03-21T08:34:30;14.15;;;4.25;;
43678;SDS011;29279;50.858;4.392;2023-03-21T08:36:56;19.95;;;4.60;;
43678;SDS011;29279;50.858;4.392;2023-03-21T08:39:22;12.73;;;5.00;;
43678;SDS011;29279;50.858;4.392;2023-03-21T08:41:48;27.05;;;6.85;;
43678;SDS011;29279;50.858;4.392;2023-03-21T08:44:14;17.13;;;4.65;;
43678;SDS011;29279;50.858;4.392;2023-03-21T08:46:41;12.77;;;3.58;;
43678;SDS011;29279;50.858;4.392;2023-03-21T08:49:06;10.95;;;3.65;;
43678;SDS011;29279;50.858;4.392;2023-03-21T08:51:32;14.80;;;4.72;;
43678;SDS011;29279;50.858;4.392;2023-03-21T08:54:02;12.32;;;4.15;;
43678;SDS011;29279;50.858;4.392;2023-03-21T08:56:29;14.32;;;4.35;;
43678;SDS011;29279;50.858;4.392;2023-03-21T08:58:55;17.33;;;4.38;;
43678;SDS011;29279;50.858;4.392;2023-03-21T09:01:21;21.88;;;4.35;;
43678;SDS011;29279;50.858;4.392;2023-03-21T09:03:47;14.50;;;4.68;;
43678;SDS011;29279;50.858;4.392;2023-03-21T09:06:13;13.00;;;4.40;;
43678;SDS011;29279;50.858;4.392;2023-03-21T09:08:40;14.13;;;3.78;;
43678;SDS011;29279;50.858;4.392;2023-03-21T09:11:10;15.00;;;3.47;;
43678;SDS011;29279;50.858;4.392;2023-03-21T09:13:35;18.92;;;4.07;;
43678;SDS011;29279;50.858;4.392;2023-03-21T09:16:01;14.68;;;4.10;;
43678;SDS011;29279;50.858;4.392;2023-03-21T09:18:29;15.40;;;4.78;;
43678;SDS011;29279;50.858;4.392;2023-03-21T09:21:11;10.43;;;3.50;;
43678;SDS011;29279;50.858;4.392;2023-03-21T09:23:39;14.60;;;3.67;;
43678;SDS011;29279;50.858;4.392;2023-03-21T09:26:06;15.98;;;3.80;;
43678;SDS011;29279;50.858;4.392;2023-03-21T09:28:33;14.13;;;3.40;;
43678;SDS011;29279;50.858;4.392;2023-03-21T09:31:01;6.47;;;2.70;;
43678;SDS011;29279;50.858;4.392;2023-03-21T09:33:28;14.65;;;3.28;;
43678;SDS011;29279;50.858;4.392;2023-03-21T09:35:54;11.90;;;3.22;;
43678;SDS011;29279;50.858;4.392;2023-03-21T09:38:20;15.95;;;3.63;;
43678;SDS011;29279;50.858;4.392;2023-03-21T09:46:42;12.98;;;4.55;;
43678;SDS011;29279;50.858;4.392;2023-03-21T09:49:28;17.80;;;4.20;;
43678;SDS011;29279;50.858;4.392;2023-03-21T09:51:58;13.10;;;3.53;;
43678;SDS011;29279;50.858;4.392;2023-03-21T09:54:34;11.60;;;3.67;;
43678;SDS011;29279;50.858;4.392;2023-03-21T09:57:44;12.23;;;3.70;;
43678;SDS011;29279;50.858;4.392;2023-03-21T09:59:58;15.20;;;4.68;;
43678;SDS011;29279;50.858;4.392;2023-03-21T10:05:10;10.90;;;3.40;;
43678;SDS011;29279;50.858;4.392;2023-03-21T10:07:52;11.85;;;3.38;;
43678;SDS011;29279;50.858;4.392;2023-03-21T10:10:24;10.85;;;4.40;;
43678;SDS011;29279;50.858;4.392;2023-03-21T10:12:54;17.42;;;4.75;;
43678;SDS011;29279;50.858;4.392;2023-03-21T10:15:22;13.57;;;3.25;;
43678;SDS011;29279;50.858;4.392;2023-03-21T10:17:52;16.80;;;3.42;;
43678;SDS011;29279;50.858;4.392;2023-03-21T10:20:35;12.88;;;3.33;;
43678;SDS011;29279;50.858;4.392;2023-03-21T10:23:07;12.88;;;3.15;;
43678;SDS011;29279;50.858;4.392;2023-03-21T10:25:42;14.25;;;3.55;;
43678;SDS011;29279;50.858;4.392;2023-03-21T10:28:21;10.52;;;3.28;;
43678;SDS011;29279;50.858;4.392;2023-03-21T10:30:52;9.55;;;3.65;;
43678;SDS011;29279;50.858;4.392;2023-03-21T10:33:21;18.98;;;3.55;;
43678;SDS011;29279;50.858;4.392;2023-03-21T10:35:58;9.45;;;3.17;;
43678;SDS011;29279;50.858;4.392;2023-03-21T10:38:26;13.43;;;3.70;;
43678;SDS011;29279;50.858;4.392;2023-03-21T10:40:52;15.25;;;3.63;;
43678;SDS011;29279;50.858;4.392;2023-03-21T10:43:25;15.27;;;3.92;;
43678;SDS011;29279;50.858;4.392;2023-03-21T10:46:18;13.23;;;4.20;;
43678;SDS011;29279;50.858;4.392;2023-03-21T10:48:51;8.60;;;3.50;;
43678;SDS011;29279;50.858;4.392;2023-03-21T10:51:19;12.85;;;3.65;;
43678;SDS011;29279;50.858;4.392;2023-03-21T10:53:50;12.38;;;3.95;;
43678;SDS011;29279;50.858;4.392;2023-03-21T10:56:22;13.48;;;3.70;;
43678;SDS011;29279;50.858;4.392;2023-03-21T10:58:52;12.93;;;4.00;;
43678;SDS011;29279;50.858;4.392;2023-03-21T11:03:57;9.57;;;4.30;;
43678;SDS011;29279;50.858;4.392;2023-03-21T11:06:26;11.70;;;4.28;;
43678;SDS011;29279;50.858;4.392;2023-03-21T11:09:05;8.85;;;3.38;;
43678;SDS011;29279;50.858;4.392;2023-03-21T11:11:37;9.05;;;3.70;;
43678;SDS011;29279;50.858;4.392;2023-03-21T11:14:23;9.90;;;4.25;;
43678;SDS011;29279;50.858;4.392;2023-03-21T11:16:58;14.30;;;4.03;;
43678;SDS011;29279;50.858;4.392;2023-03-21T11:19:27;13.35;;;4.35;;
43678;SDS011;29279;50.858;4.392;2023-03-21T11:21:56;12.65;;;4.47;;
43678;SDS011;29279;50.858;4.392;2023-03-21T11:24:23;16.17;;;4.90;;
43678;SDS011;29279;50.858;4.392;2023-03-21T11:26:53;18.20;;;4.80;;
43678;SDS011;29279;50.858;4.392;2023-03-21T11:32:15;14.18;;;4.45;;
43678;SDS011;29279;50.858;4.392;2023-03-21T11:34:50;12.73;;;4.10;;
43678;SDS011;29279;50.858;4.392;2023-03-21T11:37:32;14.93;;;3.83;;
43678;SDS011;29279;50.858;4.392;2023-03-21T11:42:32;12.18;;;3.58;;
43678;SDS011;29279;50.858;4.392;2023-03-21T11:45:11;14.35;;;4.10;;
43678;SDS011;29279;50.858;4.392;2023-03-21T11:47:41;25.15;;;5.15;;
43678;SDS011;29279;50.858;4.392;2023-03-21T11:50:13;9.05;;;3.92;;
43678;SDS011;29279;50.858;4.392;2023-03-21T11:52:46;12.70;;;4.05;;
43678;SDS011;29279;50.858;4.392;2023-03-21T11:58:21;15.45;;;4.05;;
43678;SDS011;29279;50.858;4.392;2023-03-21T12:01:08;19.52;;;4.45;;
43678;SDS011;29279;50.858;4.392;2023-03-21T12:14:28;10.75;;;3.95;;
43678;SDS011;29279;50.858;4.392;2023-03-21T12:19:51;9.57;;;4.28;;
43678;SDS011;29279;50.858;4.392;2023-03-21T12:22:40;14.00;;;4.32;;
43678;SDS011;29279;50.858;4.392;2023-03-21T12:25:14;14.57;;;4.15;;
43678;SDS011;29279;50.858;4.392;2023-03-21T12:31:24;11.18;;;4.50;;
43678;SDS011;29279;50.858;4.392;2023-03-21T12:33:35;9.23;;;3.65;;
43678;SDS011;29279;50.858;4.392;2023-03-21T12:36:14;12.43;;;3.80;;
43678;SDS011;29279;50.858;4.392;2023-03-21T12:38:43;18.67;;;4.32;;
43678;SDS011;29279;50.858;4.392;2023-03-21T12:41:19;11.23;;;4.28;;
43678;SDS011;29279;50.858;4.392;2023-03-21T12:46:22;15.90;;;4.20;;
43678;SDS011;29279;50.858;4.392;2023-03-21T12:49:12;8.60;;;3.88;;
43678;SDS011;29279;50.858;4.392;2023-03-21T12:52:23;21.00;;;4.53;;
43678;SDS011;29279;50.858;4.392;2023-03-21T13:00:19;8.80;;;3.53;;
43678;SDS011;29279;50.858;4.392;2023-03-21T13:02:56;12.18;;;4.00;;
43678;SDS011;29279;50.858;4.392;2023-03-21T13:05:43;9.95;;;4.20;;
43678;SDS011;29279;50.858;4.392;2023-03-21T13:10:57;10.88;;;3.67;;
43678;SDS011;29279;50.858;4.392;2023-03-21T13:13:34;16.80;;;4.75;;
43678;SDS011;29279;50.858;4.392;2023-03-21T13:16:17;12.75;;;4.10;;
43678;SDS011;29279;50.858;4.392;2023-03-21T13:29:49;13.13;;;3.83;;
43678;SDS011;29279;50.858;4.392;2023-03-21T13:34:54;14.35;;;4.40;;
43678;SDS011;29279;50.858;4.392;2023-03-21T13:37:21;14.30;;;3.50;;
43678;SDS011;29279;50.858;4.392;2023-03-21T13:39:50;10.52;;;3.90;;
43678;SDS011;29279;50.858;4.392;2023-03-21T13:42:20;10.27;;;3.45;;
43678;SDS011;29279;50.858;4.392;2023-03-21T13:44:49;9.07;;;3.28;;
43678;SDS011;29279;50.858;4.392;2023-03-21T13:47:39;10.68;;;3.33;;
43678;SDS011;29279;50.858;4.392;2023-03-21T13:55:39;14.13;;;3.65;;
43678;SDS011;29279;50.858;4.392;2023-03-21T14:04:09;22.90;;;6.82;;
43678;SDS011;29279;50.858;4.392;2023-03-21T14:06:48;8.20;;;3.95;;
43678;SDS011;29279;50.858;4.392;2023-03-21T14:09:27;14.13;;;3.87;;
43678;SDS011;29279;50.858;4.392;2023-03-21T14:12:00;11.88;;;3.85;;
43678;SDS011;29279;50.858;4.392;2023-03-21T14:14:29;10.30;;;3.58;;
43678;SDS011;29279;50.858;4.392;2023-03-21T14:16:59;10.20;;;3.78;;
43678;SDS011;29279;50.858;4.392;2023-03-21T14:19:30;14.20;;;4.03;;
43678;SDS011;29279;50.858;4.392;2023-03-21T14:21:59;10.95;;;4.18;;
43678;SDS011;29279;50.858;4.392;2023-03-21T14:24:25;6.55;;;3.55;;
43678;SDS011;29279;50.858;4.392;2023-03-21T14:26:52;13.55;;;4.40;;
43678;SDS011;29279;50.858;4.392;2023-03-21T14:29:25;11.57;;;4.35;;
43678;SDS011;29279;50.858;4.392;2023-03-21T14:31:55;11.75;;;4.80;;
43678;SDS011;29279;50.858;4.392;2023-03-21T14:34:23;10.60;;;4.43;;
43678;SDS011;29279;50.858;4.392;2023-03-21T14:36:52;15.00;;;5.68;;
43678;SDS011;29279;50.858;4.392;2023-03-21T14:39:22;16.42;;;5.38;;
43678;SDS011;29279;50.858;4.392;2023-03-21T14:41:52;9.25;;;5.20;;
43678;SDS011;29279;50.858;4.392;2023-03-21T14:44:23;12.57;;;5.32;;
43678;SDS011;29279;50.858;4.392;2023-03-21T14:47:08;9.68;;;4.15;;
43678;SDS011;29279;50.858;4.392;2023-03-21T14:49:43;15.13;;;5.30;;
43678;SDS011;29279;50.858;4.392;2023-03-21T14:52:10;9.40;;;4.57;;
43678;SDS011;29279;50.858;4.392;2023-03-21T14:54:56;8.70;;;3.80;;
43678;SDS011;29279;50.858;4.392;2023-03-21T14:57:23;9.10;;;3.92;;
43678;SDS011;29279;50.858;4.392;2023-03-21T14:59:53;7.60;;;3.58;;
43678;SDS011;29279;50.858;4.392;2023-03-21T15:05:05;9.20;;;3.97;;
43678;SDS011;29279;50.858;4.392;2023-03-21T15:07:40;11.23;;;4.40;;
43678;SDS011;29279;50.858;4.392;2023-03-21T15:10:08;7.30;;;3.72;;
43678;SDS011;29279;50.858;4.392;2023-03-21T15:13:15;8.65;;;4.15;;
43678;SDS011;29279;50.858;4.392;2023-03-21T15:15:43;8.88;;;4.90;;
43678;SDS011;29279;50.858;4.392;2023-03-21T15:18:10;11.90;;;4.88;;
43678;SDS011;29279;50.858;4.392;2023-03-21T15:20:39;7.57;;;4.82;;
43678;SDS011;29279;50.858;4.392;2023-03-21T15:23:06;10.90;;;5.05;;
43678;SDS011;29279;50.858;4.392;2023-03-21T15:25:37;9.43;;;5.25;;
43678;SDS011;29279;50.858;4.392;2023-03-21T15:28:03;11.32;;;5.20;;
43678;SDS011;29279;50.858;4.392;2023-03-21T15:30:30;12.88;;;6.25;;
43678;SDS011;29279;50.858;4.392;2023-03-21T15:33:00;11.98;;;5.40;;
43678;SDS011;29279;50.858;4.392;2023-03-21T15:35:37;11.10;;;5.13;;
43678;SDS011;29279;50.858;4.392;2023-03-21T15:38:05;9.32;;;5.25;;
43678;SDS011;29279;50.858;4.392;2023-03-21T15:40:32;9.98;;;4.80;;
43678;SDS011;29279;50.858;4.392;2023-03-21T15:43:03;11.15;;;4.85;;
43678;SDS011;29279;50.858;4.392;2023-03-21T15:45:30;11.98;;;4.80;;
43678;SDS011;29279;50.858;4.392;2023-03-21T15:48:06;12.38;;;4.68;;
43678;SDS011;29279;50.858;4.392;2023-03-21T15:50:56;11.70;;;5.07;;
43678;SDS011;29279;50.858;4.392;2023-03-21T15:53:24;7.45;;;5.15;;
43678;SDS011;29279;50.858;4.392;2023-03-21T15:55:59;11.18;;;5.20;;
43678;SDS011;29279;50.858;4.392;2023-03-21T15:58:30;10.02;;;5.20;;
43678;SDS011;29279;50.858;4.392;2023-03-21T16:01:03;13.68;;;6.40;;
43678;SDS011;29279;50.858;4.392;2023-03-21T16:03:35;22.80;;;6.68;;
43678;SDS011;29279;50.858;4.392;2023-03-21T16:08:46;10.73;;;6.50;;
43678;SDS011;29279;50.858;4.392;2023-03-21T16:13:52;9.80;;;6.75;;
43678;SDS011;29279;50.858;4.392;2023-03-21T16:16:20;10.25;;;6.65;;
43678;SDS011;29279;50.858;4.392;2023-03-21T16:18:49;15.82;;;7.90;;
43678;SDS011;29279;50.858;4.392;2023-03-21T16:21:16;15.32;;;7.43;;
43678;SDS011;29279;50.858;4.392;2023-03-21T16:23:43;17.95;;;7.18;;
43678;SDS011;29279;50.858;4.392;2023-03-21T16:26:20;15.02;;;7.60;;
43678;SDS011;29279;50.858;4.392;2023-03-21T16:28:51;15.32;;;7.35;;
43678;SDS011;29279;50.858;4.392;2023-03-21T16:31:19;17.52;;;6.80;;
43678;SDS011;29279;50.858;4.392;2023-03-21T16:33:49;15.70;;;6.85;;
43678;SDS011;29279;50.858;4.392;2023-03-21T16:36:37;15.73;;;7.30;;
43678;SDS011;29279;50.858;4.392;2023-03-21T16:39:06;11.60;;;6.85;;
43678;SDS011;29279;50.858;4.392;2023-03-21T16:41:43;15.40;;;7.18;;
43678;SDS011;29279;50.858;4.392;2023-03-21T16:44:09;12.27;;;6.80;;
43678;SDS011;29279;50.858;4.392;2023-03-21T16:46:35;15.48;;;6.38;;
43678;SDS011;29279;50.858;4.392;2023-03-21T16:49:01;12.90;;;6.15;;